sensor_id;sensor_type;location;lat;lon;timestamp;P1;durP1;ratioP1;P2;durP2;ratioP2
17830;SDS011;9040;51.332;12.406;2022-09-30T00:01:40;16.33;;;11.40;;
17830;SDS011;9040;51.332;12.406;2022-09-30T00:04:12;13.03;;;10.40;;
17830;SDS011;9040;51.332;12.406;2022-09-30T00:06:44;22.05;;;12.88;;
17830;SDS011;9040;51.332;12.406;2022-09-30T00:09:14;12.07;;;10.13;;
17830;SDS011;9040;51.332;12.406;2022-09-30T00:11:42;19.65;;;12.38;;
17830;SDS011;9040;51.332;12.406;2022-09-30T00:14:12;13.68;;;11.23;;
17830;SDS011;9040;51.332;12.406;2022-09-30T00:16:42;20.17;;;12.48;;
17830;SDS011;9040;51.332;12.406;2022-09-30T00:19:11;12.53;;;11.10;;
17830;SDS011;9040;51.332;12.406;2022-09-30T00:21:41;15.20;;;11.43;;
17830;SDS011;9040;51.332;12.406;2022-09-30T00:24:12;16.80;;;11.00;;
17830;SDS011;9040;51.332;12.406;2022-09-30T00:26:41;14.40;;;11.37;;
17830;SDS011;9040;51.332;12.406;2022-09-30T00:29:10;16.17;;;11.23;;
17830;SDS011;9040;51.332;12.406;2022-09-30T00:31:39;23.83;;;12.07;;
17830;SDS011;9040;51.332;12.406;2022-09-30T00:34:08;17.13;;;11.33;;
17830;SDS011;9040;51.332;12.406;2022-09-30T00:36:38;19.00;;;10.30;;
17830;SDS011;9040;51.332;12.406;2022-09-30T00:39:13;13.13;;;10.03;;
17830;SDS011;9040;51.332;12.406;2022-09-30T00:41:43;19.63;;;10.73;;
17830;SDS011;9040;51.332;12.406;2022-09-30T00:47:22;12.43;;;10.03;;
17830;SDS011;9040;51.332;12.406;2022-09-30T00:50:13;18.43;;;10.90;;
17830;SDS011;9040;51.332;12.406;2022-09-30T00:52:45;21.97;;;11.27;;
17830;SDS011;9040;51.332;12.406;2022-09-30T00:55:23;17.20;;;12.30;;
17830;SDS011;9040;51.332;12.406;2022-09-30T00:57:56;14.33;;;11.33;;
17830;SDS011;9040;51.332;12.406;2022-09-30T01:00:28;12.95;;;9.68;;
17830;SDS011;9040;51.332;12.406;2022-09-30T01:02:57;15.47;;;10.40;;
17830;SDS011;9040;51.332;12.406;2022-09-30T01:05:25;14.02;;;10.80;;
17830;SDS011;9040;51.332;12.406;2022-09-30T01:07:55;16.57;;;11.10;;
17830;SDS011;9040;51.332;12.406;2022-09-30T01:10:28;15.00;;;10.93;;
17830;SDS011;9040;51.332;12.406;2022-09-30T01:12:57;15.07;;;11.07;;
17830;SDS011;9040;51.332;12.406;2022-09-30T01:15:29;16.75;;;10.93;;
17830;SDS011;9040;51.332;12.406;2022-09-30T01:18:11;16.23;;;11.93;;
17830;SDS011;9040;51.332;12.406;2022-09-30T01:20:49;15.77;;;11.77;;
17830;SDS011;9040;51.332;12.406;2022-09-30T01:23:39;17.95;;;11.75;;
17830;SDS011;9040;51.332;12.406;2022-09-30T01:29:40;18.02;;;11.27;;
17830;SDS011;9040;51.332;12.406;2022-09-30T01:32:31;18.77;;;10.80;;
17830;SDS011;9040;51.332;12.406;2022-09-30T01:35:12;16.43;;;12.33;;
17830;SDS011;9040;51.332;12.406;2022-09-30T01:37:52;20.13;;;12.50;;
17830;SDS011;9040;51.332;12.406;2022-09-30T01:40:29;20.95;;;12.18;;
17830;SDS011;9040;51.332;12.406;2022-09-30T01:43:04;20.23;;;11.55;;
17830;SDS011;9040;51.332;12.406;2022-09-30T01:45:36;16.43;;;10.30;;
17830;SDS011;9040;51.332;12.406;2022-09-30T01:48:13;19.42;;;11.27;;
17830;SDS011;9040;51.332;12.406;2022-09-30T01:50:46;21.13;;;12.13;;
17830;SDS011;9040;51.332;12.406;2022-09-30T01:53:21;15.53;;;10.83;;
17830;SDS011;9040;51.332;12.406;2022-09-30T01:55:55;16.67;;;12.15;;
17830;SDS011;9040;51.332;12.406;2022-09-30T01:58:29;15.30;;;11.60;;
17830;SDS011;9040;51.332;12.406;2022-09-30T02:01:04;16.57;;;12.03;;
17830;SDS011;9040;51.332;12.406;2022-09-30T02:03:40;21.60;;;12.93;;
17830;SDS011;9040;51.332;12.406;2022-09-30T02:06:14;18.17;;;12.00;;
17830;SDS011;9040;51.332;12.406;2022-09-30T02:08:46;17.17;;;11.10;;
17830;SDS011;9040;51.332;12.406;2022-09-30T02:11:19;27.23;;;13.03;;
17830;SDS011;9040;51.332;12.406;2022-09-30T02:13:52;23.60;;;12.17;;
17830;SDS011;9040;51.332;12.406;2022-09-30T02:16:27;20.50;;;11.80;;
17830;SDS011;9040;51.332;12.406;2022-09-30T02:19:05;18.40;;;10.60;;
17830;SDS011;9040;51.332;12.406;2022-09-30T02:21:40;14.03;;;11.27;;
17830;SDS011;9040;51.332;12.406;2022-09-30T02:24:13;14.13;;;11.30;;
17830;SDS011;9040;51.332;12.406;2022-09-30T02:26:46;13.73;;;10.00;;
17830;SDS011;9040;51.332;12.406;2022-09-30T02:29:17;19.00;;;11.17;;
17830;SDS011;9040;51.332;12.406;2022-09-30T02:31:49;18.23;;;11.73;;
17830;SDS011;9040;51.332;12.406;2022-09-30T02:34:24;11.77;;;9.80;;
17830;SDS011;9040;51.332;12.406;2022-09-30T02:36:58;13.88;;;10.00;;
17830;SDS011;9040;51.332;12.406;2022-09-30T02:39:33;13.80;;;8.97;;
17830;SDS011;9040;51.332;12.406;2022-09-30T02:42:10;11.25;;;9.10;;
17830;SDS011;9040;51.332;12.406;2022-09-30T02:44:44;15.63;;;10.63;;
17830;SDS011;9040;51.332;12.406;2022-09-30T02:47:14;12.40;;;9.45;;
17830;SDS011;9040;51.332;12.406;2022-09-30T02:49:53;22.15;;;10.25;;
17830;SDS011;9040;51.332;12.406;2022-09-30T02:52:29;14.60;;;9.50;;
17830;SDS011;9040;51.332;12.406;2022-09-30T02:55:12;18.52;;;10.10;;
17830;SDS011;9040;51.332;12.406;2022-09-30T02:57:50;17.63;;;10.40;;
17830;SDS011;9040;51.332;12.406;2022-09-30T03:00:24;13.68;;;10.00;;
17830;SDS011;9040;51.332;12.406;2022-09-30T03:02:55;16.90;;;8.73;;
17830;SDS011;9040;51.332;12.406;2022-09-30T03:05:29;11.30;;;8.03;;
17830;SDS011;9040;51.332;12.406;2022-09-30T03:07:58;16.35;;;10.63;;
17830;SDS011;9040;51.332;12.406;2022-09-30T03:10:28;12.80;;;10.07;;
17830;SDS011;9040;51.332;12.406;2022-09-30T03:13:02;14.52;;;8.88;;
17830;SDS011;9040;51.332;12.406;2022-09-30T03:15:43;14.00;;;8.83;;
17830;SDS011;9040;51.332;12.406;2022-09-30T03:18:23;10.07;;;8.30;;
17830;SDS011;9040;51.332;12.406;2022-09-30T03:21:16;17.20;;;10.50;;
17830;SDS011;9040;51.332;12.406;2022-09-30T03:24:03;17.27;;;9.73;;
17830;SDS011;9040;51.332;12.406;2022-09-30T03:26:51;14.40;;;9.70;;
17830;SDS011;9040;51.332;12.406;2022-09-30T03:29:30;49.50;;;25.90;;
17830;SDS011;9040;51.332;12.406;2022-09-30T03:32:11;22.17;;;12.10;;
17830;SDS011;9040;51.332;12.406;2022-09-30T03:34:55;18.02;;;9.32;;
17830;SDS011;9040;51.332;12.406;2022-09-30T03:37:32;15.70;;;9.10;;
17830;SDS011;9040;51.332;12.406;2022-09-30T03:40:13;16.80;;;11.97;;
17830;SDS011;9040;51.332;12.406;2022-09-30T03:42:50;13.48;;;9.70;;
17830;SDS011;9040;51.332;12.406;2022-09-30T03:45:26;18.90;;;11.03;;
17830;SDS011;9040;51.332;12.406;2022-09-30T03:47:59;15.60;;;10.20;;
17830;SDS011;9040;51.332;12.406;2022-09-30T03:50:31;20.90;;;8.73;;
17830;SDS011;9040;51.332;12.406;2022-09-30T03:53:05;16.00;;;10.17;;
17830;SDS011;9040;51.332;12.406;2022-09-30T03:55:44;15.35;;;8.60;;
17830;SDS011;9040;51.332;12.406;2022-09-30T03:58:14;14.50;;;9.68;;
17830;SDS011;9040;51.332;12.406;2022-09-30T04:00:46;12.00;;;8.83;;
17830;SDS011;9040;51.332;12.406;2022-09-30T04:03:17;12.18;;;8.75;;
17830;SDS011;9040;51.332;12.406;2022-09-30T04:05:47;12.93;;;9.27;;
17830;SDS011;9040;51.332;12.406;2022-09-30T04:08:19;12.97;;;9.77;;
17830;SDS011;9040;51.332;12.406;2022-09-30T04:10:48;13.68;;;8.88;;
17830;SDS011;9040;51.332;12.406;2022-09-30T04:13:16;12.50;;;8.40;;
17830;SDS011;9040;51.332;12.406;2022-09-30T04:15:51;12.13;;;8.57;;
17830;SDS011;9040;51.332;12.406;2022-09-30T04:18:20;13.05;;;9.35;;
17830;SDS011;9040;51.332;12.406;2022-09-30T04:20:49;13.50;;;7.40;;
17830;SDS011;9040;51.332;12.406;2022-09-30T04:23:20;15.45;;;9.85;;
17830;SDS011;9040;51.332;12.406;2022-09-30T04:25:52;16.25;;;8.57;;
17830;SDS011;9040;51.332;12.406;2022-09-30T04:28:21;14.63;;;9.65;;
17830;SDS011;9040;51.332;12.406;2022-09-30T04:30:50;9.98;;;7.10;;
17830;SDS011;9040;51.332;12.406;2022-09-30T04:33:18;14.60;;;8.40;;
17830;SDS011;9040;51.332;12.406;2022-09-30T04:35:47;16.02;;;8.68;;
17830;SDS011;9040;51.332;12.406;2022-09-30T04:38:22;11.30;;;9.20;;
17830;SDS011;9040;51.332;12.406;2022-09-30T04:40:52;9.38;;;8.02;;
17830;SDS011;9040;51.332;12.406;2022-09-30T04:43:22;14.37;;;8.37;;
17830;SDS011;9040;51.332;12.406;2022-09-30T04:45:52;18.20;;;8.63;;
17830;SDS011;9040;51.332;12.406;2022-09-30T04:48:21;16.70;;;8.95;;
17830;SDS011;9040;51.332;12.406;2022-09-30T04:50:52;13.40;;;9.10;;
17830;SDS011;9040;51.332;12.406;2022-09-30T04:53:23;15.50;;;7.50;;
17830;SDS011;9040;51.332;12.406;2022-09-30T04:55:57;12.60;;;7.95;;
17830;SDS011;9040;51.332;12.406;2022-09-30T04:58:26;10.43;;;8.07;;
17830;SDS011;9040;51.332;12.406;2022-09-30T05:00:59;16.48;;;8.13;;
17830;SDS011;9040;51.332;12.406;2022-09-30T05:03:29;13.43;;;8.02;;
17830;SDS011;9040;51.332;12.406;2022-09-30T05:05:57;9.88;;;7.82;;
17830;SDS011;9040;51.332;12.406;2022-09-30T05:08:29;11.02;;;8.20;;
17830;SDS011;9040;51.332;12.406;2022-09-30T05:10:59;18.55;;;9.82;;
17830;SDS011;9040;51.332;12.406;2022-09-30T05:13:30;11.00;;;7.03;;
17830;SDS011;9040;51.332;12.406;2022-09-30T05:16:00;11.60;;;7.38;;
17830;SDS011;9040;51.332;12.406;2022-09-30T05:18:29;18.98;;;9.57;;
17830;SDS011;9040;51.332;12.406;2022-09-30T05:20:59;14.25;;;8.40;;
17830;SDS011;9040;51.332;12.406;2022-09-30T05:23:31;19.35;;;8.57;;
17830;SDS011;9040;51.332;12.406;2022-09-30T05:26:01;14.93;;;8.15;;
17830;SDS011;9040;51.332;12.406;2022-09-30T05:28:29;11.50;;;8.60;;
17830;SDS011;9040;51.332;12.406;2022-09-30T05:31:00;11.27;;;8.93;;
17830;SDS011;9040;51.332;12.406;2022-09-30T05:33:30;21.80;;;7.55;;
17830;SDS011;9040;51.332;12.406;2022-09-30T05:36:01;15.65;;;8.75;;
17830;SDS011;9040;51.332;12.406;2022-09-30T05:38:34;11.13;;;7.60;;
17830;SDS011;9040;51.332;12.406;2022-09-30T05:41:06;17.80;;;9.20;;
17830;SDS011;9040;51.332;12.406;2022-09-30T05:43:36;12.63;;;9.10;;
17830;SDS011;9040;51.332;12.406;2022-09-30T05:46:05;16.23;;;7.82;;
17830;SDS011;9040;51.332;12.406;2022-09-30T05:48:34;16.23;;;8.65;;
17830;SDS011;9040;51.332;12.406;2022-09-30T05:51:03;13.18;;;8.23;;
17830;SDS011;9040;51.332;12.406;2022-09-30T05:53:35;14.23;;;9.30;;
17830;SDS011;9040;51.332;12.406;2022-09-30T05:56:05;24.60;;;9.60;;
17830;SDS011;9040;51.332;12.406;2022-09-30T05:58:36;19.08;;;9.25;;
17830;SDS011;9040;51.332;12.406;2022-09-30T06:01:06;27.20;;;9.88;;
17830;SDS011;9040;51.332;12.406;2022-09-30T06:03:36;19.63;;;9.52;;
17830;SDS011;9040;51.332;12.406;2022-09-30T06:06:05;14.90;;;8.63;;
17830;SDS011;9040;51.332;12.406;2022-09-30T06:08:37;14.70;;;9.23;;
17830;SDS011;9040;51.332;12.406;2022-09-30T06:11:08;22.40;;;8.63;;
17830;SDS011;9040;51.332;12.406;2022-09-30T06:13:39;29.17;;;9.67;;
17830;SDS011;9040;51.332;12.406;2022-09-30T06:16:09;17.57;;;11.43;;
17830;SDS011;9040;51.332;12.406;2022-09-30T06:18:39;14.67;;;9.77;;
17830;SDS011;9040;51.332;12.406;2022-09-30T06:21:09;20.20;;;9.50;;
17830;SDS011;9040;51.332;12.406;2022-09-30T06:23:42;28.63;;;8.03;;
17830;SDS011;9040;51.332;12.406;2022-09-30T06:26:11;16.90;;;8.47;;
17830;SDS011;9040;51.332;12.406;2022-09-30T06:28:41;10.13;;;7.70;;
17830;SDS011;9040;51.332;12.406;2022-09-30T06:31:10;21.55;;;8.27;;
17830;SDS011;9040;51.332;12.406;2022-09-30T06:33:39;12.57;;;8.35;;
17830;SDS011;9040;51.332;12.406;2022-09-30T06:36:09;17.10;;;8.37;;
17830;SDS011;9040;51.332;12.406;2022-09-30T06:38:38;21.07;;;9.90;;
17830;SDS011;9040;51.332;12.406;2022-09-30T06:41:09;17.40;;;9.38;;
17830;SDS011;9040;51.332;12.406;2022-09-30T06:43:38;15.50;;;8.90;;
17830;SDS011;9040;51.332;12.406;2022-09-30T06:46:07;9.75;;;8.55;;
17830;SDS011;9040;51.332;12.406;2022-09-30T06:48:36;19.75;;;7.13;;
17830;SDS011;9040;51.332;12.406;2022-09-30T06:51:05;17.45;;;8.15;;
17830;SDS011;9040;51.332;12.406;2022-09-30T06:53:35;9.65;;;8.45;;
17830;SDS011;9040;51.332;12.406;2022-09-30T06:56:04;10.63;;;8.70;;
17830;SDS011;9040;51.332;12.406;2022-09-30T06:58:36;14.60;;;8.05;;
17830;SDS011;9040;51.332;12.406;2022-09-30T07:01:09;16.60;;;8.73;;
17830;SDS011;9040;51.332;12.406;2022-09-30T07:03:40;13.43;;;9.20;;
17830;SDS011;9040;51.332;12.406;2022-09-30T07:06:11;9.83;;;7.30;;
17830;SDS011;9040;51.332;12.406;2022-09-30T07:08:41;14.33;;;9.20;;
17830;SDS011;9040;51.332;12.406;2022-09-30T07:11:10;10.77;;;8.32;;
17830;SDS011;9040;51.332;12.406;2022-09-30T07:13:44;10.30;;;8.07;;
17830;SDS011;9040;51.332;12.406;2022-09-30T07:16:14;13.77;;;8.85;;
17830;SDS011;9040;51.332;12.406;2022-09-30T07:18:44;12.97;;;8.33;;
17830;SDS011;9040;51.332;12.406;2022-09-30T07:21:13;14.60;;;7.60;;
17830;SDS011;9040;51.332;12.406;2022-09-30T07:23:42;10.43;;;7.60;;
17830;SDS011;9040;51.332;12.406;2022-09-30T07:26:12;16.63;;;9.40;;
17830;SDS011;9040;51.332;12.406;2022-09-30T07:28:45;14.67;;;8.63;;
17830;SDS011;9040;51.332;12.406;2022-09-30T07:31:16;10.47;;;8.70;;
17830;SDS011;9040;51.332;12.406;2022-09-30T07:33:46;13.40;;;8.47;;
17830;SDS011;9040;51.332;12.406;2022-09-30T07:36:15;11.80;;;9.37;;
17830;SDS011;9040;51.332;12.406;2022-09-30T07:38:44;15.23;;;9.77;;
17830;SDS011;9040;51.332;12.406;2022-09-30T07:41:16;12.57;;;8.53;;
17830;SDS011;9040;51.332;12.406;2022-09-30T07:43:51;12.43;;;7.57;;
17830;SDS011;9040;51.332;12.406;2022-09-30T07:46:22;9.33;;;8.30;;
17830;SDS011;9040;51.332;12.406;2022-09-30T07:48:53;14.13;;;7.83;;
17830;SDS011;9040;51.332;12.406;2022-09-30T07:51:27;13.50;;;9.50;;
17830;SDS011;9040;51.332;12.406;2022-09-30T07:53:59;10.60;;;8.70;;
17830;SDS011;9040;51.332;12.406;2022-09-30T07:56:29;11.73;;;7.97;;
17830;SDS011;9040;51.332;12.406;2022-09-30T07:59:01;14.27;;;8.33;;
17830;SDS011;9040;51.332;12.406;2022-09-30T08:01:30;13.93;;;8.63;;
17830;SDS011;9040;51.332;12.406;2022-09-30T08:04:00;9.47;;;7.57;;
17830;SDS011;9040;51.332;12.406;2022-09-30T08:06:31;11.77;;;7.83;;
17830;SDS011;9040;51.332;12.406;2022-09-30T08:09:04;14.43;;;8.50;;
17830;SDS011;9040;51.332;12.406;2022-09-30T08:11:33;13.50;;;8.70;;
17830;SDS011;9040;51.332;12.406;2022-09-30T08:14:05;16.40;;;8.53;;
17830;SDS011;9040;51.332;12.406;2022-09-30T08:16:34;10.50;;;8.20;;
17830;SDS011;9040;51.332;12.406;2022-09-30T08:19:03;12.60;;;7.43;;
17830;SDS011;9040;51.332;12.406;2022-09-30T08:21:31;14.83;;;7.23;;
17830;SDS011;9040;51.332;12.406;2022-09-30T08:24:02;13.17;;;8.33;;
17830;SDS011;9040;51.332;12.406;2022-09-30T08:26:30;14.97;;;10.20;;
17830;SDS011;9040;51.332;12.406;2022-09-30T08:28:59;11.67;;;8.43;;
17830;SDS011;9040;51.332;12.406;2022-09-30T08:31:30;11.97;;;8.83;;
17830;SDS011;9040;51.332;12.406;2022-09-30T08:33:59;10.07;;;7.70;;
17830;SDS011;9040;51.332;12.406;2022-09-30T08:36:28;11.00;;;7.60;;
17830;SDS011;9040;51.332;12.406;2022-09-30T08:38:57;10.93;;;7.07;;
17830;SDS011;9040;51.332;12.406;2022-09-30T08:41:33;13.30;;;8.00;;
17830;SDS011;9040;51.332;12.406;2022-09-30T08:44:18;10.70;;;8.10;;
17830;SDS011;9040;51.332;12.406;2022-09-30T08:47:04;11.07;;;7.63;;
17830;SDS011;9040;51.332;12.406;2022-09-30T08:49:46;13.80;;;7.07;;
17830;SDS011;9040;51.332;12.406;2022-09-30T08:52:21;17.83;;;7.83;;
17830;SDS011;9040;51.332;12.406;2022-09-30T08:54:54;13.63;;;9.23;;
17830;SDS011;9040;51.332;12.406;2022-09-30T08:57:24;9.87;;;8.77;;
17830;SDS011;9040;51.332;12.406;2022-09-30T09:00:03;12.17;;;8.17;;
17830;SDS011;9040;51.332;12.406;2022-09-30T09:02:39;12.50;;;7.90;;
17830;SDS011;9040;51.332;12.406;2022-09-30T09:05:15;11.73;;;8.10;;
17830;SDS011;9040;51.332;12.406;2022-09-30T09:07:51;8.90;;;7.10;;
17830;SDS011;9040;51.332;12.406;2022-09-30T09:10:31;11.27;;;7.63;;
17830;SDS011;9040;51.332;12.406;2022-09-30T09:13:11;23.17;;;8.77;;
17830;SDS011;9040;51.332;12.406;2022-09-30T09:15:56;13.50;;;9.17;;
17830;SDS011;9040;51.332;12.406;2022-09-30T09:18:41;10.73;;;5.83;;
17830;SDS011;9040;51.332;12.406;2022-09-30T09:21:20;11.27;;;6.00;;
17830;SDS011;9040;51.332;12.406;2022-09-30T09:23:54;12.90;;;6.33;;
17830;SDS011;9040;51.332;12.406;2022-09-30T09:26:28;10.90;;;5.10;;
17830;SDS011;9040;51.332;12.406;2022-09-30T09:29:08;11.23;;;5.30;;
17830;SDS011;9040;51.332;12.406;2022-09-30T09:31:50;10.27;;;6.00;;
17830;SDS011;9040;51.332;12.406;2022-09-30T09:34:24;6.27;;;5.67;;
17830;SDS011;9040;51.332;12.406;2022-09-30T09:37:00;6.70;;;6.03;;
17830;SDS011;9040;51.332;12.406;2022-09-30T09:39:43;6.93;;;5.33;;
17830;SDS011;9040;51.332;12.406;2022-09-30T09:42:32;13.47;;;5.80;;
17830;SDS011;9040;51.332;12.406;2022-09-30T09:45:10;13.73;;;6.17;;
17830;SDS011;9040;51.332;12.406;2022-09-30T09:47:49;8.97;;;5.73;;
17830;SDS011;9040;51.332;12.406;2022-09-30T09:50:22;17.70;;;5.80;;
17830;SDS011;9040;51.332;12.406;2022-09-30T09:53:02;8.90;;;6.20;;
17830;SDS011;9040;51.332;12.406;2022-09-30T09:55:40;8.17;;;5.67;;
17830;SDS011;9040;51.332;12.406;2022-09-30T09:58:10;7.07;;;5.10;;
17830;SDS011;9040;51.332;12.406;2022-09-30T10:00:41;5.60;;;5.07;;
17830;SDS011;9040;51.332;12.406;2022-09-30T10:03:23;10.33;;;6.43;;
17830;SDS011;9040;51.332;12.406;2022-09-30T10:06:04;7.43;;;6.07;;
17830;SDS011;9040;51.332;12.406;2022-09-30T10:08:34;6.30;;;5.30;;
17830;SDS011;9040;51.332;12.406;2022-09-30T10:11:05;5.00;;;4.07;;
17830;SDS011;9040;51.332;12.406;2022-09-30T10:13:44;4.57;;;4.17;;
17830;SDS011;9040;51.332;12.406;2022-09-30T10:19:02;7.43;;;3.90;;
17830;SDS011;9040;51.332;12.406;2022-09-30T10:21:35;7.43;;;5.30;;
17830;SDS011;9040;51.332;12.406;2022-09-30T10:24:10;7.07;;;4.40;;
17830;SDS011;9040;51.332;12.406;2022-09-30T10:26:47;7.97;;;5.13;;
17830;SDS011;9040;51.332;12.406;2022-09-30T10:29:26;6.70;;;4.90;;
17830;SDS011;9040;51.332;12.406;2022-09-30T10:31:56;9.17;;;5.83;;
17830;SDS011;9040;51.332;12.406;2022-09-30T10:34:26;6.73;;;4.33;;
17830;SDS011;9040;51.332;12.406;2022-09-30T10:37:05;19.87;;;5.60;;
17830;SDS011;9040;51.332;12.406;2022-09-30T10:39:36;5.43;;;4.90;;
17830;SDS011;9040;51.332;12.406;2022-09-30T10:42:09;7.03;;;4.93;;
17830;SDS011;9040;51.332;12.406;2022-09-30T10:44:43;5.23;;;4.73;;
17830;SDS011;9040;51.332;12.406;2022-09-30T10:47:15;9.03;;;4.67;;
17830;SDS011;9040;51.332;12.406;2022-09-30T10:49:46;9.83;;;5.83;;
17830;SDS011;9040;51.332;12.406;2022-09-30T10:52:21;8.20;;;5.03;;
17830;SDS011;9040;51.332;12.406;2022-09-30T10:54:53;8.10;;;5.50;;
17830;SDS011;9040;51.332;12.406;2022-09-30T10:57:24;15.13;;;5.90;;
17830;SDS011;9040;51.332;12.406;2022-09-30T10:59:56;9.53;;;6.53;;
17830;SDS011;9040;51.332;12.406;2022-09-30T11:02:29;6.40;;;5.40;;
17830;SDS011;9040;51.332;12.406;2022-09-30T11:05:04;8.70;;;6.20;;
17830;SDS011;9040;51.332;12.406;2022-09-30T11:07:43;9.23;;;6.77;;
17830;SDS011;9040;51.332;12.406;2022-09-30T11:10:24;10.90;;;5.50;;
17830;SDS011;9040;51.332;12.406;2022-09-30T11:13:01;6.77;;;5.10;;
17830;SDS011;9040;51.332;12.406;2022-09-30T11:15:39;18.13;;;6.33;;
17830;SDS011;9040;51.332;12.406;2022-09-30T11:18:16;8.50;;;5.17;;
17830;SDS011;9040;51.332;12.406;2022-09-30T11:20:50;4.40;;;4.00;;
17830;SDS011;9040;51.332;12.406;2022-09-30T11:23:28;5.37;;;4.40;;
17830;SDS011;9040;51.332;12.406;2022-09-30T11:26:03;5.50;;;4.20;;
17830;SDS011;9040;51.332;12.406;2022-09-30T11:31:30;8.40;;;4.13;;
17830;SDS011;9040;51.332;12.406;2022-09-30T11:34:07;7.20;;;4.90;;
17830;SDS011;9040;51.332;12.406;2022-09-30T11:36:49;11.37;;;4.20;;
17830;SDS011;9040;51.332;12.406;2022-09-30T11:42:18;6.73;;;5.00;;
17830;SDS011;9040;51.332;12.406;2022-09-30T11:44:54;8.73;;;5.30;;
17830;SDS011;9040;51.332;12.406;2022-09-30T11:47:44;7.37;;;4.20;;
17830;SDS011;9040;51.332;12.406;2022-09-30T11:50:27;6.27;;;4.30;;
17830;SDS011;9040;51.332;12.406;2022-09-30T11:53:09;7.73;;;5.17;;
17830;SDS011;9040;51.332;12.406;2022-09-30T11:55:54;12.40;;;6.83;;
17830;SDS011;9040;51.332;12.406;2022-09-30T11:58:35;7.00;;;3.90;;
17830;SDS011;9040;51.332;12.406;2022-09-30T12:01:15;5.37;;;4.87;;
17830;SDS011;9040;51.332;12.406;2022-09-30T12:03:52;4.90;;;3.90;;
17830;SDS011;9040;51.332;12.406;2022-09-30T12:06:29;8.40;;;3.20;;
17830;SDS011;9040;51.332;12.406;2022-09-30T12:09:06;7.87;;;2.63;;
17830;SDS011;9040;51.332;12.406;2022-09-30T12:11:52;3.77;;;2.20;;
17830;SDS011;9040;51.332;12.406;2022-09-30T12:14:25;3.30;;;2.10;;
17830;SDS011;9040;51.332;12.406;2022-09-30T12:17:01;5.57;;;2.60;;
17830;SDS011;9040;51.332;12.406;2022-09-30T12:19:35;4.20;;;2.47;;
17830;SDS011;9040;51.332;12.406;2022-09-30T12:22:10;8.73;;;2.73;;
17830;SDS011;9040;51.332;12.406;2022-09-30T12:24:42;5.13;;;3.77;;
17830;SDS011;9040;51.332;12.406;2022-09-30T12:27:17;4.90;;;2.67;;
17830;SDS011;9040;51.332;12.406;2022-09-30T12:29:52;3.13;;;2.87;;
17830;SDS011;9040;51.332;12.406;2022-09-30T12:35:47;8.40;;;2.10;;
17830;SDS011;9040;51.332;12.406;2022-09-30T12:38:40;5.93;;;4.00;;
17830;SDS011;9040;51.332;12.406;2022-09-30T12:41:25;3.67;;;2.43;;
17830;SDS011;9040;51.332;12.406;2022-09-30T12:44:16;8.60;;;2.63;;
17830;SDS011;9040;51.332;12.406;2022-09-30T12:47:18;5.10;;;3.90;;
17830;SDS011;9040;51.332;12.406;2022-09-30T12:49:55;18.07;;;4.43;;
17830;SDS011;9040;51.332;12.406;2022-09-30T12:52:30;4.70;;;2.97;;
17830;SDS011;9040;51.332;12.406;2022-09-30T12:55:00;3.70;;;2.90;;
17830;SDS011;9040;51.332;12.406;2022-09-30T12:57:35;8.97;;;3.67;;
17830;SDS011;9040;51.332;12.406;2022-09-30T13:00:12;7.47;;;4.03;;
17830;SDS011;9040;51.332;12.406;2022-09-30T13:02:43;4.43;;;3.00;;
17830;SDS011;9040;51.332;12.406;2022-09-30T13:08:21;10.10;;;3.30;;
17830;SDS011;9040;51.332;12.406;2022-09-30T13:10:58;7.40;;;4.17;;
17830;SDS011;9040;51.332;12.406;2022-09-30T13:13:32;4.33;;;3.00;;
17830;SDS011;9040;51.332;12.406;2022-09-30T13:19:29;4.43;;;3.90;;
17830;SDS011;9040;51.332;12.406;2022-09-30T13:25:03;5.67;;;4.30;;
17830;SDS011;9040;51.332;12.406;2022-09-30T13:27:38;6.93;;;3.53;;
17830;SDS011;9040;51.332;12.406;2022-09-30T13:33:05;5.90;;;3.40;;
17830;SDS011;9040;51.332;12.406;2022-09-30T13:36:13;4.27;;;3.33;;
17830;SDS011;9040;51.332;12.406;2022-09-30T13:39:14;4.10;;;3.17;;
17830;SDS011;9040;51.332;12.406;2022-09-30T13:41:48;5.63;;;3.53;;
17830;SDS011;9040;51.332;12.406;2022-09-30T13:44:36;3.80;;;3.33;;
17830;SDS011;9040;51.332;12.406;2022-09-30T13:47:16;3.10;;;2.90;;
17830;SDS011;9040;51.332;12.406;2022-09-30T13:49:50;16.50;;;4.13;;
17830;SDS011;9040;51.332;12.406;2022-09-30T13:52:26;3.50;;;3.17;;
17830;SDS011;9040;51.332;12.406;2022-09-30T13:54:59;3.47;;;2.70;;
17830;SDS011;9040;51.332;12.406;2022-09-30T13:57:36;5.40;;;4.30;;
17830;SDS011;9040;51.332;12.406;2022-09-30T14:00:13;8.73;;;3.30;;
17830;SDS011;9040;51.332;12.406;2022-09-30T14:02:47;5.27;;;2.90;;
17830;SDS011;9040;51.332;12.406;2022-09-30T14:05:36;3.30;;;3.00;;
17830;SDS011;9040;51.332;12.406;2022-09-30T14:08:33;5.23;;;3.87;;
17830;SDS011;9040;51.332;12.406;2022-09-30T14:14:20;5.47;;;3.80;;
17830;SDS011;9040;51.332;12.406;2022-09-30T14:20:08;6.50;;;4.47;;
17830;SDS011;9040;51.332;12.406;2022-09-30T14:22:47;5.20;;;4.07;;
17830;SDS011;9040;51.332;12.406;2022-09-30T14:25:19;5.50;;;4.10;;
17830;SDS011;9040;51.332;12.406;2022-09-30T14:27:53;9.83;;;4.30;;
17830;SDS011;9040;51.332;12.406;2022-09-30T14:30:31;8.83;;;4.03;;
17830;SDS011;9040;51.332;12.406;2022-09-30T14:33:09;8.03;;;4.87;;
17830;SDS011;9040;51.332;12.406;2022-09-30T14:35:43;7.87;;;5.00;;
17830;SDS011;9040;51.332;12.406;2022-09-30T14:38:13;6.10;;;4.60;;
17830;SDS011;9040;51.332;12.406;2022-09-30T14:40:51;7.77;;;4.50;;
17830;SDS011;9040;51.332;12.406;2022-09-30T14:43:21;5.43;;;4.10;;
17830;SDS011;9040;51.332;12.406;2022-09-30T14:45:58;7.53;;;4.50;;
17830;SDS011;9040;51.332;12.406;2022-09-30T14:48:33;16.40;;;4.87;;
17830;SDS011;9040;51.332;12.406;2022-09-30T14:51:07;9.27;;;5.17;;
17830;SDS011;9040;51.332;12.406;2022-09-30T14:53:39;8.03;;;4.87;;
17830;SDS011;9040;51.332;12.406;2022-09-30T14:56:24;6.80;;;4.53;;
17830;SDS011;9040;51.332;12.406;2022-09-30T14:58:54;19.90;;;5.43;;
17830;SDS011;9040;51.332;12.406;2022-09-30T15:01:24;9.97;;;3.50;;
17830;SDS011;9040;51.332;12.406;2022-09-30T15:03:56;6.60;;;3.90;;
17830;SDS011;9040;51.332;12.406;2022-09-30T15:06:27;4.70;;;3.47;;
17830;SDS011;9040;51.332;12.406;2022-09-30T15:08:59;11.70;;;4.07;;
17830;SDS011;9040;51.332;12.406;2022-09-30T15:11:32;6.60;;;2.77;;
17830;SDS011;9040;51.332;12.406;2022-09-30T15:14:02;3.70;;;2.90;;
17830;SDS011;9040;51.332;12.406;2022-09-30T15:16:42;10.03;;;2.80;;
17830;SDS011;9040;51.332;12.406;2022-09-30T15:19:14;3.73;;;3.20;;
17830;SDS011;9040;51.332;12.406;2022-09-30T15:21:46;6.00;;;2.60;;
17830;SDS011;9040;51.332;12.406;2022-09-30T15:24:17;3.90;;;1.70;;
17830;SDS011;9040;51.332;12.406;2022-09-30T15:26:49;7.63;;;3.93;;
17830;SDS011;9040;51.332;12.406;2022-09-30T15:29:21;8.33;;;3.40;;
17830;SDS011;9040;51.332;12.406;2022-09-30T15:31:51;3.93;;;3.03;;
17830;SDS011;9040;51.332;12.406;2022-09-30T15:34:26;6.20;;;3.27;;
17830;SDS011;9040;51.332;12.406;2022-09-30T15:36:56;13.50;;;4.50;;
17830;SDS011;9040;51.332;12.406;2022-09-30T15:39:30;5.27;;;3.57;;
17830;SDS011;9040;51.332;12.406;2022-09-30T15:42:24;4.60;;;2.40;;
17830;SDS011;9040;51.332;12.406;2022-09-30T15:44:57;5.53;;;2.80;;
17830;SDS011;9040;51.332;12.406;2022-09-30T15:47:26;4.40;;;2.43;;
17830;SDS011;9040;51.332;12.406;2022-09-30T15:49:55;6.07;;;3.13;;
17830;SDS011;9040;51.332;12.406;2022-09-30T15:52:28;3.30;;;2.23;;
17830;SDS011;9040;51.332;12.406;2022-09-30T15:58:10;2.80;;;2.00;;